Time;durP1;ratioP1;P1;durP2;ratioP2;P2;SDS_P1;SDS_P2;PMS_P1;PMS_P2;Temp;Humidity;BMP_temperature;BMP_pressure;BME280_temperature;BME280_humidity;BME280_pressure;Samples;Min_cycle;Max_cycle;Signal;HPM_P1;HPM_P2
2021/08/23 00:00:44;;;;;;;;;5.00;5.00;;;;;;;;5033885;28;45276;-93
2021/08/23 00:03:10;;;;;;;;;3.00;3.00;;;;;;;;5031857;28;44788;-92
2021/08/23 00:05:35;;;;;;;;;6.00;3.67;;;;;;;;5032230;28;45323;-96
2021/08/23 00:08:00;;;;;;;;;4.00;4.00;;;;;;;;5032094;28;45742;-85
2021/08/23 00:10:26;;;;;;;;;8.00;5.00;;;;;;;;5021998;28;45541;-94
2021/08/23 00:12:51;;;;;;;;;5.00;5.00;;;;;;;;5027064;28;45333;-89
2021/08/23 00:15:16;;;;;;;;;8.25;5.00;;;;;;;;5029022;28;45451;-95
2021/08/23 00:17:42;;;;;;;;;6.00;4.67;;;;;;;;5027948;28;45457;-94
2021/08/23 00:20:10;;;;;;;;;4.75;3.75;;;;;;;;5029455;28;45417;-96
2021/08/23 00:22:37;;;;;;;;;4.50;4.50;;;;;;;;5024797;28;50030;-93
2021/08/23 00:25:02;;;;;;;;;7.00;4.00;;;;;;;;5025065;28;45465;-94
2021/08/23 00:27:28;;;;;;;;;8.00;5.00;;;;;;;;5034573;28;45325;-95
2021/08/23 00:29:53;;;;;;;;;4.75;4.75;;;;;;;;5030859;28;46335;-92
2021/08/23 00:32:19;;;;;;;;;6.75;5.25;;;;;;;;5034596;28;45530;-96
2021/08/23 00:34:44;;;;;;;;;6.75;3.75;;;;;;;;5034526;28;45919;-92
2021/08/23 00:37:09;;;;;;;;;5.00;4.00;;;;;;;;5030437;28;45446;-95
2021/08/23 00:39:35;;;;;;;;;5.33;3.67;;;;;;;;5032757;28;45453;-96
2021/08/23 00:42:00;;;;;;;;;4.67;4.33;;;;;;;;5025286;28;45687;-95
2021/08/23 00:44:26;;;;;;;;;4.50;4.50;;;;;;;;5026926;28;46026;-92
2021/08/23 00:46:51;;;;;;;;;5.50;4.00;;;;;;;;5029730;28;45315;-94
2021/08/23 00:49:16;;;;;;;;;5.67;4.00;;;;;;;;5029326;28;45503;-88
2021/08/23 00:51:42;;;;;;;;;5.75;4.00;;;;;;;;5038344;28;45466;-95
2021/08/23 00:54:07;;;;;;;;;5.50;4.00;;;;;;;;5035085;28;46017;-87
2021/08/23 00:56:32;;;;;;;;;6.00;4.00;;;;;;;;5036076;28;45469;-96
2021/08/23 00:58:57;;;;;;;;;5.50;5.00;;;;;;;;5030040;28;45487;-96
2021/08/23 01:01:29;;;;;;;;;4.00;4.00;;;;;;;;5037625;28;45451;-96
2021/08/23 01:04:00;;;;;;;;;4.75;4.00;;;;;;;;5037055;28;45533;-96
2021/08/23 01:06:25;;;;;;;;;6.00;4.00;;;;;;;;5039591;28;45581;-93
2021/08/23 01:08:53;;;;;;;;;5.00;3.00;;;;;;;;5035755;28;45577;-95
2021/08/23 01:11:19;;;;;;;;;5.25;4.25;;;;;;;;5037638;28;45738;-95
2021/08/23 01:13:46;;;;;;;;;6.00;5.00;;;;;;;;5039363;28;46349;-96
2021/08/23 01:16:12;;;;;;;;;2.00;2.00;;;;;;;;5029500;28;45578;-95
2021/08/23 01:18:37;;;;;;;;;3.00;3.00;;;;;;;;5034706;28;45573;-93
2021/08/23 01:21:04;;;;;;;;;4.25;4.25;;;;;;;;5037254;28;45562;-90
2021/08/23 01:23:36;;;;;;;;;7.25;3.00;;;;;;;;5036653;28;46106;-94
2021/08/23 01:26:01;;;;;;;;;6.25;4.00;;;;;;;;5037263;28;45554;-92
2021/08/23 01:28:27;;;;;;;;;4.00;4.00;;;;;;;;5026104;28;45345;-89
2021/08/23 01:31:04;;;;;;;;;4.67;4.33;;;;;;;;5035559;28;46072;-95
2021/08/23 01:33:30;;;;;;;;;4.50;4.50;;;;;;;;5040371;28;46398;-95
2021/08/23 01:35:56;;;;;;;;;8.25;4.75;;;;;;;;5039712;28;45311;-95
2021/08/23 01:38:21;;;;;;;;;5.00;5.00;;;;;;;;5037272;28;45300;-92
2021/08/23 01:40:47;;;;;;;;;5.00;4.75;;;;;;;;5033894;28;45330;-94
2021/08/23 01:43:12;;;;;;;;;6.67;5.00;;;;;;;;5033031;28;46029;-94
2021/08/23 01:45:37;;;;;;;;;5.33;5.00;;;;;;;;5034823;28;45367;-95
2021/08/23 01:48:02;;;;;;;;;5.67;4.33;;;;;;;;5032732;28;45544;-94
2021/08/23 01:50:28;;;;;;;;;4.25;4.00;;;;;;;;5034612;28;45349;-95
2021/08/23 01:52:53;;;;;;;;;7.67;4.67;;;;;;;;5033085;28;45437;-95
2021/08/23 01:55:18;;;;;;;;;3.33;3.33;;;;;;;;5028541;28;45189;-94
2021/08/23 01:57:43;;;;;;;;;10.67;5.00;;;;;;;;5040245;28;45648;-90
2021/08/23 02:00:09;;;;;;;;;4.33;4.00;;;;;;;;5034617;28;45502;-94
2021/08/23 02:02:34;;;;;;;;;6.75;5.00;;;;;;;;5037154;28;45544;-94
2021/08/23 02:04:59;;;;;;;;;5.00;5.00;;;;;;;;5033600;28;46070;-93
2021/08/23 02:07:24;;;;;;;;;8.00;4.00;;;;;;;;5032855;28;45398;-95
2021/08/23 02:09:50;;;;;;;;;6.00;4.00;;;;;;;;5035263;28;45359;-94
2021/08/23 02:12:15;;;;;;;;;5.75;4.00;;;;;;;;5028003;28;47301;-95
2021/08/23 02:14:40;;;;;;;;;6.67;4.67;;;;;;;;5030739;28;45569;-95
2021/08/23 02:17:05;;;;;;;;;10.33;5.00;;;;;;;;5029836;28;45558;-93
2021/08/23 02:19:31;;;;;;;;;8.50;5.00;;;;;;;;5034358;28;45347;-94
2021/08/23 02:21:56;;;;;;;;;5.00;5.00;;;;;;;;5034356;28;45583;-92
2021/08/23 02:24:22;;;;;;;;;6.75;5.25;;;;;;;;5035726;28;45492;-92
2021/08/23 02:26:47;;;;;;;;;7.50;4.50;;;;;;;;5034379;28;45451;-93
2021/08/23 02:29:12;;;;;;;;;4.75;4.75;;;;;;;;5027469;28;45424;-88
2021/08/23 02:31:38;;;;;;;;;6.00;6.00;;;;;;;;5029555;28;46122;-94
2021/08/23 02:34:03;;;;;;;;;6.00;5.00;;;;;;;;5032904;28;45332;-94
2021/08/23 02:36:29;;;;;;;;;6.00;5.50;;;;;;;;5030640;28;45528;-94
2021/08/23 02:38:54;;;;;;;;;5.50;4.00;;;;;;;;5032894;28;45433;-95
2021/08/23 02:41:20;;;;;;;;;6.00;4.00;;;;;;;;5034404;28;45390;-86
2021/08/23 02:43:45;;;;;;;;;6.00;5.00;;;;;;;;5025657;28;45420;-95
2021/08/23 02:46:10;;;;;;;;;4.33;4.33;;;;;;;;5030126;28;45564;-93
2021/08/23 02:48:35;;;;;;;;;5.00;5.00;;;;;;;;5030169;28;45767;-95
2021/08/23 02:51:00;;;;;;;;;7.67;5.00;;;;;;;;5031279;28;45329;-89
2021/08/23 02:53:26;;;;;;;;;6.67;5.00;;;;;;;;5028013;28;45311;-93
2021/08/23 02:55:51;;;;;;;;;5.67;5.33;;;;;;;;5028155;28;45464;-93
2021/08/23 02:58:16;;;;;;;;;6.00;4.00;;;;;;;;5032912;28;45248;-88
2021/08/23 03:00:41;;;;;;;;;7.00;5.00;;;;;;;;5029858;28;46274;-93
2021/08/23 03:03:06;;;;;;;;;6.00;4.67;;;;;;;;5036380;28;45250;-95
2021/08/23 03:05:32;;;;;;;;;6.33;4.00;;;;;;;;5032927;28;45587;-95
2021/08/23 03:07:57;;;;;;;;;5.25;4.25;;;;;;;;5026871;28;45334;-94
2021/08/23 03:10:22;;;;;;;;;6.33;4.00;;;;;;;;5028182;28;46817;-93
2021/08/23 03:12:47;;;;;;;;;5.00;5.00;;;;;;;;5034523;28;45580;-94
2021/08/23 03:15:13;;;;;;;;;7.33;5.00;;;;;;;;5033851;28;45427;-94
2021/08/23 03:17:38;;;;;;;;;3.67;3.67;;;;;;;;5031246;28;45296;-95
2021/08/23 03:20:04;;;;;;;;;5.67;3.00;;;;;;;;5027694;28;46270;-94
2021/08/23 03:22:29;;;;;;;;;6.25;5.25;;;;;;;;5031208;28;45383;-96
2021/08/23 03:24:54;;;;;;;;;5.00;4.00;;;;;;;;5030176;28;45529;-95
2021/08/23 03:27:19;;;;;;;;;4.00;4.00;;;;;;;;5033912;28;45434;-94
2021/08/23 03:29:50;;;;;;;;;6.00;6.00;;;;;;;;5029165;28;46449;-93
2021/08/23 03:32:15;;;;;;;;;5.50;3.75;;;;;;;;5033335;28;45805;-96
2021/08/23 03:34:40;;;;;;;;;4.33;3.00;;;;;;;;5031969;28;45449;-94
2021/08/23 03:37:05;;;;;;;;;6.00;4.33;;;;;;;;5035130;28;45463;-85
2021/08/23 03:39:31;;;;;;;;;4.33;4.00;;;;;;;;5025662;28;46092;-95
2021/08/23 03:41:56;;;;;;;;;4.00;4.00;;;;;;;;5032916;28;45684;-94
2021/08/23 03:44:21;;;;;;;;;6.00;4.00;;;;;;;;5033422;28;45346;-95
2021/08/23 03:46:46;;;;;;;;;4.33;4.33;;;;;;;;5031937;28;45306;-92
2021/08/23 03:49:12;;;;;;;;;7.67;3.67;;;;;;;;5027572;28;45529;-87
2021/08/23 03:51:37;;;;;;;;;4.75;4.75;;;;;;;;5035767;28;45383;-83
2021/08/23 03:54:02;;;;;;;;;4.25;4.25;;;;;;;;5034621;28;45472;-93
2021/08/23 03:56:28;;;;;;;;;4.67;4.67;;;;;;;;5028239;28;45399;-89
2021/08/23 03:58:53;;;;;;;;;8.75;4.75;;;;;;;;5030080;28;45553;-95
2021/08/23 04:01:18;;;;;;;;;5.75;5.00;;;;;;;;5030735;28;45459;-91
2021/08/23 04:03:44;;;;;;;;;5.00;5.00;;;;;;;;5032268;28;45394;-92
2021/08/23 04:06:09;;;;;;;;;10.00;5.00;;;;;;;;5033169;28;45328;-92
2021/08/23 04:08:35;;;;;;;;;5.00;5.00;;;;;;;;5029565;28;45955;-92
2021/08/23 04:11:00;;;;;;;;;3.33;3.33;;;;;;;;5022798;28;45483;-94
2021/08/23 04:13:25;;;;;;;;;5.00;4.00;;;;;;;;5025868;28;45232;-88
2021/08/23 04:15:50;;;;;;;;;7.33;5.67;;;;;;;;5028539;28;45277;-94
2021/08/23 04:18:15;;;;;;;;;7.67;7.67;;;;;;;;5033436;28;45547;-94
2021/08/23 04:20:41;;;;;;;;;5.00;4.00;;;;;;;;5028806;28;45518;-94
2021/08/23 04:23:06;;;;;;;;;5.00;4.25;;;;;;;;5031917;28;45429;-92
2021/08/23 04:25:31;;;;;;;;;3.67;3.67;;;;;;;;5032962;28;45270;-94
2021/08/23 04:27:56;;;;;;;;;6.75;5.00;;;;;;;;5032945;28;45526;-92
2021/08/23 04:30:22;;;;;;;;;6.00;4.33;;;;;;;;5032449;28;45449;-94
2021/08/23 04:32:47;;;;;;;;;4.33;4.33;;;;;;;;5033122;28;45485;-92
2021/08/23 04:35:12;;;;;;;;;6.75;3.25;;;;;;;;5031635;28;45502;-94
2021/08/23 04:37:37;;;;;;;;;5.00;4.00;;;;;;;;5033358;28;45504;-94
2021/08/23 04:40:03;;;;;;;;;5.00;4.00;;;;;;;;5029879;28;46147;-94
2021/08/23 04:42:28;;;;;;;;;8.25;6.00;;;;;;;;5032717;28;45451;-93
2021/08/23 04:44:53;;;;;;;;;4.00;4.00;;;;;;;;5032019;28;45466;-90
2021/08/23 04:47:18;;;;;;;;;5.33;5.33;;;;;;;;5034058;28;46395;-94
2021/08/23 04:49:44;;;;;;;;;5.00;5.00;;;;;;;;5030369;28;45429;-95
2021/08/23 04:52:09;;;;;;;;;6.33;4.33;;;;;;;;5031685;28;45358;-95
2021/08/23 04:54:34;;;;;;;;;5.67;4.67;;;;;;;;5033322;28;45370;-93
2021/08/23 04:56:59;;;;;;;;;8.00;5.25;;;;;;;;5031235;28;45437;-90
2021/08/23 04:59:25;;;;;;;;;7.00;5.25;;;;;;;;5030045;28;46070;-93
2021/08/23 05:01:50;;;;;;;;;5.00;5.00;;;;;;;;5030165;28;45346;-93
2021/08/23 05:04:15;;;;;;;;;7.00;4.00;;;;;;;;5033392;28;45295;-94
2021/08/23 05:06:40;;;;;;;;;5.00;5.00;;;;;;;;5030789;28;45433;-94
2021/08/23 05:09:05;;;;;;;;;6.33;5.00;;;;;;;;5027304;28;45621;-94
2021/08/23 05:11:31;;;;;;;;;8.33;5.33;;;;;;;;5030223;28;45432;-95
2021/08/23 05:13:56;;;;;;;;;6.00;6.00;;;;;;;;5032374;28;45467;-94
2021/08/23 05:16:21;;;;;;;;;7.67;5.00;;;;;;;;5032833;28;45331;-96
2021/08/23 05:18:46;;;;;;;;;8.00;6.00;;;;;;;;5033502;28;45359;-89
2021/08/23 05:21:12;;;;;;;;;7.33;6.00;;;;;;;;5028359;28;45544;-95
2021/08/23 05:23:37;;;;;;;;;6.67;6.67;;;;;;;;5033137;28;45580;-94
2021/08/23 05:26:05;;;;;;;;;6.00;5.33;;;;;;;;5035065;28;46135;-92
2021/08/23 05:28:30;;;;;;;;;5.00;5.00;;;;;;;;5030818;28;45958;-94
2021/08/23 05:30:56;;;;;;;;;6.67;5.00;;;;;;;;5041217;28;44827;-90
2021/08/23 05:33:21;;;;;;;;;9.67;5.00;;;;;;;;5052931;28;45503;-93
2021/08/23 05:35:46;;;;;;;;;9.00;6.00;;;;;;;;5045050;28;45298;-91
2021/08/23 05:38:11;;;;;;;;;10.00;8.00;;;;;;;;5049121;28;45232;-91
2021/08/23 05:40:36;;;;;;;;;6.67;5.33;;;;;;;;5039226;28;45425;-92
2021/08/23 05:43:02;;;;;;;;;11.67;6.67;;;;;;;;5043473;28;45526;-92
2021/08/23 05:45:28;;;;;;;;;7.75;6.25;;;;;;;;5043746;28;45640;-93
2021/08/23 05:47:53;;;;;;;;;7.00;5.00;;;;;;;;5039551;28;45362;-93
2021/08/23 05:50:18;;;;;;;;;8.33;7.00;;;;;;;;5035300;28;45496;-95
2021/08/23 05:52:43;;;;;;;;;7.67;6.00;;;;;;;;5037023;28;45395;-92
2021/08/23 05:55:09;;;;;;;;;8.00;7.00;;;;;;;;5035449;28;45627;-94
2021/08/23 05:57:34;;;;;;;;;7.25;6.00;;;;;;;;5038248;28;45390;-95
2021/08/23 05:59:59;;;;;;;;;6.33;6.33;;;;;;;;5029989;28;45591;-89
2021/08/23 06:02:24;;;;;;;;;6.00;6.00;;;;;;;;5029277;28;45511;-91
2021/08/23 06:04:49;;;;;;;;;11.00;7.67;;;;;;;;5034221;28;46364;-95
2021/08/23 06:07:15;;;;;;;;;9.00;6.00;;;;;;;;5026965;28;45344;-95
2021/08/23 06:09:40;;;;;;;;;7.25;6.50;;;;;;;;5030120;28;45446;-90
2021/08/23 06:12:05;;;;;;;;;8.00;8.00;;;;;;;;5034138;28;45670;-95
2021/08/23 06:14:31;;;;;;;;;9.50;6.50;;;;;;;;5034459;28;46915;-95
2021/08/23 06:16:56;;;;;;;;;6.00;6.00;;;;;;;;5036991;28;45394;-94
2021/08/23 06:19:21;;;;;;;;;7.67;6.00;;;;;;;;5035504;28;45459;-95
2021/08/23 06:21:46;;;;;;;;;7.00;7.00;;;;;;;;5034151;28;45314;-94
2021/08/23 06:24:11;;;;;;;;;8.00;6.67;;;;;;;;5036770;28;46382;-95
2021/08/23 06:26:37;;;;;;;;;8.50;7.00;;;;;;;;5035667;28;45475;-94
2021/08/23 06:29:02;;;;;;;;;7.00;7.00;;;;;;;;5031282;28;46289;-95
2021/08/23 06:31:27;;;;;;;;;6.67;6.33;;;;;;;;5026143;28;45720;-92
2021/08/23 06:33:53;;;;;;;;;10.50;7.50;;;;;;;;5035270;28;45321;-92
2021/08/23 06:36:18;;;;;;;;;8.75;6.00;;;;;;;;5036683;28;45785;-91
2021/08/23 06:38:43;;;;;;;;;10.00;6.00;;;;;;;;5041997;28;45212;-78
2021/08/23 06:41:14;;;;;;;;;6.25;6.25;;;;;;;;5052839;28;45418;-87
2021/08/23 06:43:39;;;;;;;;;8.75;7.00;;;;;;;;5039403;28;47595;-88
2021/08/23 06:46:04;;;;;;;;;7.33;7.33;;;;;;;;5023063;28;45635;-86
2021/08/23 06:48:29;;;;;;;;;7.33;7.33;;;;;;;;5033906;28;45378;-86
2021/08/23 06:50:55;;;;;;;;;14.33;7.00;;;;;;;;5030334;28;45653;-86
2021/08/23 06:53:20;;;;;;;;;7.67;7.67;;;;;;;;5032465;28;46322;-84
2021/08/23 06:55:45;;;;;;;;;10.67;7.00;;;;;;;;5031835;28;45438;-84
2021/08/23 06:58:10;;;;;;;;;7.33;7.33;;;;;;;;5023813;28;45338;-82
2021/08/23 07:00:35;;;;;;;;;9.67;7.33;;;;;;;;5028366;28;45498;-85
2021/08/23 07:03:02;;;;;;;;;6.00;5.00;;;;;;;;5029437;28;47060;-86
2021/08/23 07:05:27;;;;;;;;;6.75;6.00;;;;;;;;5030225;28;45822;-85
2021/08/23 07:07:53;;;;;;;;;8.00;6.33;;;;;;;;5028381;28;45490;-86
2021/08/23 07:10:18;;;;;;;;;8.33;6.33;;;;;;;;5027370;28;45441;-87
2021/08/23 07:12:43;;;;;;;;;7.33;6.00;;;;;;;;5030184;28;45791;-86
2021/08/23 07:15:09;;;;;;;;;8.50;6.25;;;;;;;;5030353;28;45509;-86
2021/08/23 07:17:35;;;;;;;;;9.00;7.25;;;;;;;;5030093;28;45487;-87
2021/08/23 07:20:00;;;;;;;;;8.50;7.25;;;;;;;;5028271;28;45652;-87
2021/08/23 07:22:26;;;;;;;;;6.00;6.00;;;;;;;;5025577;28;46275;-86
2021/08/23 07:24:52;;;;;;;;;8.00;8.00;;;;;;;;5032666;28;45602;-87
2021/08/23 07:27:17;;;;;;;;;9.00;6.00;;;;;;;;5031892;28;45485;-87
2021/08/23 07:29:42;;;;;;;;;9.67;6.67;;;;;;;;5031326;28;45525;-86
2021/08/23 07:32:08;;;;;;;;;7.75;7.00;;;;;;;;5027160;28;45977;-86
2021/08/23 07:34:33;;;;;;;;;6.50;6.50;;;;;;;;5029388;28;45581;-87
2021/08/23 07:36:58;;;;;;;;;8.00;8.00;;;;;;;;5028985;28;45319;-86
2021/08/23 07:39:24;;;;;;;;;9.67;7.00;;;;;;;;5030835;28;45489;-86
2021/08/23 07:41:50;;;;;;;;;8.25;8.25;;;;;;;;5028740;28;46966;-86
2021/08/23 07:44:15;;;;;;;;;6.50;6.50;;;;;;;;5032283;28;45491;-82
2021/08/23 07:46:40;;;;;;;;;11.00;8.00;;;;;;;;5032377;28;45425;-84
2021/08/23 07:49:05;;;;;;;;;8.00;6.00;;;;;;;;5027168;28;45601;-85
2021/08/23 07:51:31;;;;;;;;;9.00;8.00;;;;;;;;5016589;28;46225;-84
2021/08/23 07:53:56;;;;;;;;;9.00;8.25;;;;;;;;5026119;28;45480;-81
2021/08/23 07:56:21;;;;;;;;;6.00;6.00;;;;;;;;5027728;28;45368;-84
2021/08/23 07:58:47;;;;;;;;;8.00;7.00;;;;;;;;5027071;28;45461;-86
2021/08/23 08:01:12;;;;;;;;;7.00;7.00;;;;;;;;5028200;28;47331;-81
2021/08/23 08:03:38;;;;;;;;;6.75;5.75;;;;;;;;5027279;28;45440;-84
2021/08/23 08:06:03;;;;;;;;;6.50;6.00;;;;;;;;5041707;28;45566;-84
2021/08/23 08:08:29;;;;;;;;;9.75;7.00;;;;;;;;5010763;28;45761;-85
2021/08/23 08:10:57;;;;;;;;;8.75;7.00;;;;;;;;5027153;28;45537;-83
2021/08/23 08:13:22;;;;;;;;;7.50;7.00;;;;;;;;5022785;28;45645;-83
2021/08/23 08:15:48;;;;;;;;;7.00;6.00;;;;;;;;5026847;28;45462;-75
2021/08/23 08:18:13;;;;;;;;;6.75;5.00;;;;;;;;5017092;28;45897;-83
2021/08/23 08:20:38;;;;;;;;;6.25;4.75;;;;;;;;5014033;28;46879;-84
2021/08/23 08:23:03;;;;;;;;;6.00;6.00;;;;;;;;5025261;28;45735;-84
2021/08/23 08:25:30;;;;;;;;;6.00;6.00;;;;;;;;5030145;28;45528;-83
2021/08/23 08:27:55;;;;;;;;;6.00;6.00;;;;;;;;5016983;28;45568;-84
2021/08/23 08:30:20;;;;;;;;;5.50;5.50;;;;;;;;5018307;28;45828;-85
2021/08/23 08:32:46;;;;;;;;;9.75;6.00;;;;;;;;5016308;28;45521;-84
2021/08/23 08:35:12;;;;;;;;;7.00;6.00;;;;;;;;5014062;28;45560;-84
2021/08/23 08:37:38;;;;;;;;;7.00;7.00;;;;;;;;5013963;28;45528;-81
2021/08/23 08:40:05;;;;;;;;;5.25;5.00;;;;;;;;5018907;28;46448;-86
2021/08/23 08:42:30;;;;;;;;;4.75;4.75;;;;;;;;5016373;28;45467;-86
2021/08/23 08:44:56;;;;;;;;;5.75;5.75;;;;;;;;5016858;28;48283;-86
2021/08/23 08:47:21;;;;;;;;;7.75;6.00;;;;;;;;5018805;28;45780;-86
2021/08/23 08:49:47;;;;;;;;;9.50;7.50;;;;;;;;5012246;28;45634;-86
2021/08/23 08:52:13;;;;;;;;;7.00;7.00;;;;;;;;5014694;28;45562;-87
2021/08/23 08:54:39;;;;;;;;;5.50;5.50;;;;;;;;5011757;28;45500;-86
2021/08/23 08:57:05;;;;;;;;;7.25;5.75;;;;;;;;5011276;28;45589;-85
2021/08/23 08:59:31;;;;;;;;;7.75;6.75;;;;;;;;5009681;28;45490;-85
2021/08/23 09:01:57;;;;;;;;;5.25;5.00;;;;;;;;5022116;28;45503;-85
2021/08/23 09:04:29;;;;;;;;;7.50;6.00;;;;;;;;5014679;28;45499;-86
2021/08/23 09:06:56;;;;;;;;;6.75;6.00;;;;;;;;5011468;28;45570;-84
2021/08/23 09:09:22;;;;;;;;;6.25;6.25;;;;;;;;5018059;28;45762;-84
2021/08/23 09:11:55;;;;;;;;;9.25;9.00;;;;;;;;5020981;28;45553;-85
2021/08/23 09:14:20;;;;;;;;;6.25;6.00;;;;;;;;5029959;28;45546;-85
2021/08/23 09:16:46;;;;;;;;;9.00;6.75;;;;;;;;5031343;28;45521;-86
2021/08/23 09:19:24;;;;;;;;;6.50;5.25;;;;;;;;5030672;28;46642;-83
2021/08/23 09:21:57;;;;;;;;;7.50;6.75;;;;;;;;5029845;28;46165;-83
2021/08/23 09:24:22;;;;;;;;;6.00;4.75;;;;;;;;5033692;28;45655;-84
2021/08/23 09:26:48;;;;;;;;;6.00;6.00;;;;;;;;5029616;28;45424;-85
2021/08/23 09:29:13;;;;;;;;;7.50;6.50;;;;;;;;5029486;28;46226;-85
2021/08/23 09:31:39;;;;;;;;;8.50;8.25;;;;;;;;5021932;28;46002;-84
2021/08/23 09:34:06;;;;;;;;;8.25;6.50;;;;;;;;5032751;28;45442;-84
2021/08/23 09:36:31;;;;;;;;;7.75;6.75;;;;;;;;5034959;28;45577;-83
2021/08/23 09:39:01;;;;;;;;;7.75;6.00;;;;;;;;5027120;28;45497;-85
2021/08/23 09:41:26;;;;;;;;;9.00;6.00;;;;;;;;5032875;28;45842;-84
2021/08/23 09:43:58;;;;;;;;;7.25;7.25;;;;;;;;5032179;28;45317;-85
2021/08/23 09:46:24;;;;;;;;;7.25;5.50;;;;;;;;5032175;28;45443;-84
2021/08/23 09:48:52;;;;;;;;;6.33;6.33;;;;;;;;5028081;28;46456;-84
2021/08/23 09:51:27;;;;;;;;;9.50;7.25;;;;;;;;5032019;28;45658;-85
2021/08/23 09:54:03;;;;;;;;;9.00;8.25;;;;;;;;5027067;28;45654;-84
2021/08/23 09:56:28;;;;;;;;;7.00;7.00;;;;;;;;5028206;28;45634;-87
2021/08/23 09:58:54;;;;;;;;;9.75;7.75;;;;;;;;5026167;28;47536;-85
2021/08/23 10:01:19;;;;;;;;;11.00;7.75;;;;;;;;5030278;28;45929;-85
2021/08/23 10:03:44;;;;;;;;;6.67;6.67;;;;;;;;5020262;28;45903;-86
2021/08/23 10:06:10;;;;;;;;;9.50;8.50;;;;;;;;5028356;28;45627;-86
2021/08/23 10:08:35;;;;;;;;;7.50;7.50;;;;;;;;5031347;28;47212;-85
2021/08/23 10:11:01;;;;;;;;;6.50;6.50;;;;;;;;5024192;28;45967;-85
2021/08/23 10:13:26;;;;;;;;;9.75;8.00;;;;;;;;5030384;28;45841;-86
2021/08/23 10:15:51;;;;;;;;;11.50;7.00;;;;;;;;5030700;28;45478;-92
2021/08/23 10:18:17;;;;;;;;;7.33;7.00;;;;;;;;5031256;28;46372;-85
2021/08/23 10:20:43;;;;;;;;;8.00;8.00;;;;;;;;5033130;28;45820;-87
2021/08/23 10:23:09;;;;;;;;;6.25;6.25;;;;;;;;5025835;28;45479;-85
2021/08/23 10:25:35;;;;;;;;;6.00;6.00;;;;;;;;5020600;28;45599;-82
2021/08/23 10:28:04;;;;;;;;;7.75;6.25;;;;;;;;5021223;28;47292;-81
2021/08/23 10:30:30;;;;;;;;;8.00;7.75;;;;;;;;5034587;28;45672;-83
2021/08/23 10:32:55;;;;;;;;;7.33;7.00;;;;;;;;5030389;28;45489;-83
2021/08/23 10:35:28;;;;;;;;;5.50;5.00;;;;;;;;5024603;28;45390;-82
2021/08/23 10:37:54;;;;;;;;;5.50;5.00;;;;;;;;5025699;28;46668;-82
2021/08/23 10:40:23;;;;;;;;;7.25;5.50;;;;;;;;5029834;28;45727;-91
2021/08/23 10:42:49;;;;;;;;;9.75;6.00;;;;;;;;5030783;28;45666;-88
2021/08/23 10:45:16;;;;;;;;;5.50;5.50;;;;;;;;5023083;28;45346;-88
2021/08/23 10:47:41;;;;;;;;;5.00;5.00;;;;;;;;5030178;28;47377;-88
2021/08/23 10:50:07;;;;;;;;;5.75;5.75;;;;;;;;5030926;28;45888;-89
2021/08/23 10:52:36;;;;;;;;;7.00;6.50;;;;;;;;5032173;28;45472;-88
2021/08/23 10:55:05;;;;;;;;;4.50;4.50;;;;;;;;5023627;28;45532;-87
2021/08/23 10:57:30;;;;;;;;;8.75;7.00;;;;;;;;5029424;28;45470;-87
2021/08/23 11:00:07;;;;;;;;;7.00;6.00;;;;;;;;5022205;28;45487;-84
2021/08/23 11:02:34;;;;;;;;;7.50;4.00;;;;;;;;5031480;28;45328;-86
2021/08/23 11:05:07;;;;;;;;;7.75;5.25;;;;;;;;5033312;28;45573;-88
2021/08/23 11:07:34;;;;;;;;;10.00;6.00;;;;;;;;5031166;28;47653;-88
2021/08/23 11:10:13;;;;;;;;;6.25;5.00;;;;;;;;5030887;28;45815;-88
2021/08/23 11:12:48;;;;;;;;;5.50;5.25;;;;;;;;5030392;28;45577;-86
2021/08/23 11:15:17;;;;;;;;;7.00;5.25;;;;;;;;5034439;28;45574;-87
2021/08/23 11:17:44;;;;;;;;;6.75;6.00;;;;;;;;5034872;28;45546;-87
2021/08/23 11:20:10;;;;;;;;;4.50;4.50;;;;;;;;5031861;28;45812;-87
2021/08/23 11:22:35;;;;;;;;;8.25;6.00;;;;;;;;5030070;28;45497;-87
2021/08/23 11:25:00;;;;;;;;;8.25;5.75;;;;;;;;5024989;28;45417;-89
2021/08/23 11:27:25;;;;;;;;;7.00;6.00;;;;;;;;5032224;28;45346;-88
2021/08/23 11:29:55;;;;;;;;;7.67;6.33;;;;;;;;5027506;28;45725;-86
2021/08/23 11:32:25;;;;;;;;;7.75;5.00;;;;;;;;5020895;28;46355;-88
2021/08/23 11:34:51;;;;;;;;;8.00;6.50;;;;;;;;5026445;28;45561;-87
2021/08/23 11:37:16;;;;;;;;;9.25;6.25;;;;;;;;5026812;28;45469;-90
2021/08/23 11:39:42;;;;;;;;;7.00;5.00;;;;;;;;5032429;28;45371;-88
2021/08/23 11:42:07;;;;;;;;;7.67;6.33;;;;;;;;5026437;28;45460;-87
2021/08/23 11:44:34;;;;;;;;;6.50;6.50;;;;;;;;5023106;28;45881;-86
2021/08/23 11:47:01;;;;;;;;;11.25;8.00;;;;;;;;5030213;28;46211;-93
2021/08/23 11:49:30;;;;;;;;;8.00;7.00;;;;;;;;5034268;28;45958;-89
2021/08/23 11:51:56;;;;;;;;;8.25;8.00;;;;;;;;5034536;28;45357;-91
2021/08/23 11:54:21;;;;;;;;;9.00;9.00;;;;;;;;5034750;28;45703;-90
2021/08/23 11:56:46;;;;;;;;;8.00;7.00;;;;;;;;5034564;28;46542;-86
2021/08/23 11:59:12;;;;;;;;;10.50;7.50;;;;;;;;5022643;28;45626;-89
2021/08/23 12:01:37;;;;;;;;;8.25;8.25;;;;;;;;5031651;28;45480;-90
2021/08/23 12:04:03;;;;;;;;;7.50;7.50;;;;;;;;5031771;28;45547;-82
2021/08/23 12:06:35;;;;;;;;;7.25;7.25;;;;;;;;5024409;28;48039;-89
2021/08/23 12:09:01;;;;;;;;;10.00;7.25;;;;;;;;5030678;28;45746;-89
2021/08/23 12:11:26;;;;;;;;;8.75;8.00;;;;;;;;5032095;28;45500;-89
2021/08/23 12:13:51;;;;;;;;;9.25;7.00;;;;;;;;5032568;28;45484;-89
2021/08/23 12:16:35;;;;;;;;;8.33;7.00;;;;;;;;5030934;28;45435;-87
2021/08/23 12:19:07;;;;;;;;;8.50;8.00;;;;;;;;5031907;28;45640;-81
2021/08/23 12:21:33;;;;;;;;;7.75;7.75;;;;;;;;5034277;28;45362;-89
2021/08/23 12:23:59;;;;;;;;;10.25;7.25;;;;;;;;5026801;28;45383;-90
2021/08/23 12:26:28;;;;;;;;;9.50;7.75;;;;;;;;5028020;28;45333;-90
2021/08/23 12:28:55;;;;;;;;;7.25;7.25;;;;;;;;5032452;28;45321;-89
2021/08/23 12:31:21;;;;;;;;;7.25;7.00;;;;;;;;5026038;28;45637;-90
2021/08/23 12:33:46;;;;;;;;;10.25;9.00;;;;;;;;5030448;28;45346;-89
2021/08/23 12:36:12;;;;;;;;;8.75;8.00;;;;;;;;5033226;28;46161;-89
2021/08/23 12:38:37;;;;;;;;;7.75;7.75;;;;;;;;5032035;28;45369;-86
2021/08/23 12:41:03;;;;;;;;;8.50;8.50;;;;;;;;5032243;28;45354;-89
2021/08/23 12:43:28;;;;;;;;;7.00;6.50;;;;;;;;5028327;28;45449;-89
2021/08/23 12:45:53;;;;;;;;;8.75;8.75;;;;;;;;5016604;28;47361;-90
2021/08/23 12:48:18;;;;;;;;;6.67;6.67;;;;;;;;5033447;28;45395;-90
2021/08/23 12:50:44;;;;;;;;;9.00;7.00;;;;;;;;5033264;28;45758;-79
2021/08/23 12:53:09;;;;;;;;;10.25;8.25;;;;;;;;5019381;28;45487;-78
2021/08/23 12:55:34;;;;;;;;;10.00;9.00;;;;;;;;5024459;28;46575;-81
2021/08/23 12:57:59;;;;;;;;;9.50;8.00;;;;;;;;5025248;28;45442;-81
2021/08/23 13:00:25;;;;;;;;;9.00;7.67;;;;;;;;5031528;28;45310;-79
2021/08/23 13:02:50;;;;;;;;;9.33;9.00;;;;;;;;5029951;28;45518;-80
2021/08/23 13:05:15;;;;;;;;;13.67;8.67;;;;;;;;5027621;28;46243;-79
2021/08/23 13:07:40;;;;;;;;;8.33;8.00;;;;;;;;5024118;28;45875;-78
2021/08/23 13:10:07;;;;;;;;;10.25;9.75;;;;;;;;5017479;28;45785;-78
2021/08/23 13:12:32;;;;;;;;;8.50;8.50;;;;;;;;5028034;28;45377;-77
2021/08/23 13:14:57;;;;;;;;;9.33;9.33;;;;;;;;5024068;28;45480;-77
2021/08/23 13:17:23;;;;;;;;;8.75;8.50;;;;;;;;5022440;28;45630;-77
2021/08/23 13:19:48;;;;;;;;;10.67;9.00;;;;;;;;5029139;28;45457;-76
2021/08/23 13:22:13;;;;;;;;;14.67;10.00;;;;;;;;5027281;28;45478;-80
2021/08/23 13:24:41;;;;;;;;;10.00;9.00;;;;;;;;5020100;28;46426;-79
2021/08/23 13:27:06;;;;;;;;;11.00;11.00;;;;;;;;5028531;28;45433;-78
2021/08/23 13:29:31;;;;;;;;;11.75;10.25;;;;;;;;5029676;28;45652;-77
2021/08/23 13:31:56;;;;;;;;;11.00;9.00;;;;;;;;5030274;28;45228;-77
2021/08/23 13:34:22;;;;;;;;;14.00;9.00;;;;;;;;5027788;28;45297;-77
2021/08/23 13:36:47;;;;;;;;;10.67;10.67;;;;;;;;5024924;28;45405;-77
2021/08/23 13:39:12;;;;;;;;;9.67;9.67;;;;;;;;5030219;28;45716;-77
2021/08/23 13:41:37;;;;;;;;;14.00;10.50;;;;;;;;5026324;28;45399;-77
2021/08/23 13:44:03;;;;;;;;;10.00;8.75;;;;;;;;5029128;28;45651;-77
2021/08/23 13:46:28;;;;;;;;;10.00;8.00;;;;;;;;5026765;28;45568;-78
2021/08/23 13:48:53;;;;;;;;;11.67;9.00;;;;;;;;5028484;28;49012;-77
2021/08/23 13:51:18;;;;;;;;;11.00;10.00;;;;;;;;5028245;28;45606;-77
2021/08/23 13:53:45;;;;;;;;;12.67;11.33;;;;;;;;5027824;28;45526;-78
2021/08/23 13:56:10;;;;;;;;;13.25;11.00;;;;;;;;5025413;28;45363;-78
2021/08/23 13:58:35;;;;;;;;;12.67;12.67;;;;;;;;5028043;28;45438;-77
2021/08/23 14:01:01;;;;;;;;;12.67;10.67;;;;;;;;5024894;28;45706;-76
2021/08/23 14:03:26;;;;;;;;;11.00;11.00;;;;;;;;5031918;28;45492;-77
2021/08/23 14:05:51;;;;;;;;;10.50;10.50;;;;;;;;5031246;28;45560;-77
2021/08/23 14:08:16;;;;;;;;;10.33;10.33;;;;;;;;5032727;28;45493;-76
2021/08/23 14:10:42;;;;;;;;;10.67;10.67;;;;;;;;5031299;28;45568;-77
2021/08/23 14:13:08;;;;;;;;;13.00;9.50;;;;;;;;5029710;28;46068;-77
2021/08/23 14:15:33;;;;;;;;;9.67;9.67;;;;;;;;5026736;28;45923;-77
2021/08/23 14:17:58;;;;;;;;;11.33;11.33;;;;;;;;5032064;28;45575;-77
2021/08/23 14:20:23;;;;;;;;;16.67;11.00;;;;;;;;5031748;28;45560;-76
2021/08/23 14:22:49;;;;;;;;;11.00;10.00;;;;;;;;5027216;28;45914;-78
2021/08/23 14:25:15;;;;;;;;;12.33;10.00;;;;;;;;5031962;28;45449;-76
2021/08/23 14:27:41;;;;;;;;;10.25;10.25;;;;;;;;5036473;28;45493;-87
2021/08/23 14:30:06;;;;;;;;;10.00;10.00;;;;;;;;5017741;28;45483;-89
2021/08/23 14:32:31;;;;;;;;;12.75;10.25;;;;;;;;5028191;28;45696;-88